Loogootee, Illinois
Current Conditions -  °F | °C
As of 5:15 PM on Monday 22 Dec 2014 (Local Time) from KSLO Reporting Station
Moderate Rain Moderate Rain  
Wind Chill: 45°   Ceiling: 400
Heat Index: 50°   Visibility: 3mi
Dew Point: 47°   Wind: 10mph
Humidity: 92%   Direction: 140°SE
Pressure: 29.59"   Gusts: NA
Location:  38.9°N, 88.85°W
Report Text: KSLO 222315Z AUTO 14009KT 3SM RA OVC004 10/09 A2959 RMK AO2 P0004 T00980086
Loading
Personal Weather Stations






























Interactive Weather Map New forecast layout! Learn more

10-Day Weather Forecast

Advertisements
Track Severe Weather on mobile